Time;durP1;ratioP1;P1;durP2;ratioP2;P2;SDS_P1;SDS_P2;PMS_P1;PMS_P2;Temp;Humidity;BMP_temperature;BMP_pressure;BME280_temperature;BME280_humidity;BME280_pressure;Samples;Min_cycle;Max_cycle;Signal;HPM_P1;HPM_P2
2021/01/14 00:00:50;;;;;;;80.63;46.23;;;12.90;2124.80;;;;;;4999032;28;20042;-87
2021/01/14 00:03:16;;;;;;;88.93;46.63;;;12.90;2124.80;;;;;;4997605;28;20449;-87
2021/01/14 00:05:42;;;;;;;84.87;46.90;;;12.90;2124.80;;;;;;4998249;28;20054;-86
2021/01/14 00:08:09;;;;;;;63.90;35.37;;;12.90;2124.80;;;;;;4997326;28;20041;-93
2021/01/14 00:10:38;;;;;;;59.47;35.13;;;12.90;2150.40;;;;;;4997403;28;20491;-88
2021/01/14 00:13:07;;;;;;;62.20;35.67;;;13.00;2150.40;;;;;;4996722;28;20081;-87
2021/01/14 00:15:33;;;;;;;64.20;33.40;;;13.00;2150.40;;;;;;4996777;28;20054;-87
2021/01/14 00:17:58;;;;;;;91.63;47.67;;;13.00;2150.40;;;;;;4996347;28;20036;-89
2021/01/14 00:20:25;;;;;;;93.40;50.70;;;12.90;2124.80;;;;;;4996079;28;20053;-87
2021/01/14 00:22:51;;;;;;;95.80;52.20;;;12.90;2099.20;;;;;;4996281;28;20069;-89
2021/01/14 00:25:17;;;;;;;87.00;48.00;;;13.00;2124.80;;;;;;4996056;28;20074;-88
2021/01/14 00:27:43;;;;;;;88.20;46.77;;;13.20;2124.80;;;;;;4996393;28;20030;-88
2021/01/14 00:30:11;;;;;;;63.23;35.57;;;13.10;2150.40;;;;;;4995963;28;20030;-91
2021/01/14 00:32:38;;;;;;;67.30;36.00;;;13.00;2124.80;;;;;;4995659;28;20066;-87
2021/01/14 00:35:05;;;;;;;77.47;38.47;;;12.90;2099.20;;;;;;4998591;28;20041;-87
2021/01/14 00:40:36;;;;;;;48.80;25.43;;;12.90;2099.20;;;;;;5016987;28;20041;-88
2021/01/14 00:43:08;;;;;;;62.67;35.03;;;12.90;2099.20;;;;;;4998376;28;20061;-87
2021/01/14 00:45:37;;;;;;;41.35;21.05;;;0.00;2073.60;;;;;;4999120;28;20045;-89
2021/01/14 00:48:04;;;;;;;74.23;34.97;;;12.90;2073.60;;;;;;4998700;28;20592;-88
2021/01/14 00:50:29;;;;;;;71.03;36.17;;;0.00;2048.00;;;;;;4998249;28;20022;-89
2021/01/14 00:52:55;;;;;;;53.07;26.40;;;0.00;2073.60;;;;;;4998748;28;20022;-89
2021/01/14 00:55:21;;;;;;;63.23;32.13;;;0.00;2022.40;;;;;;4997935;28;20037;-87
2021/01/14 00:57:47;;;;;;;64.70;35.07;;;0.00;2048.00;;;;;;4998539;28;20497;-90
2021/01/14 01:00:16;;;;;;;70.97;34.47;;;0.10;2073.60;;;;;;4998760;28;20443;-89
2021/01/14 01:02:44;;;;;;;49.90;25.77;;;12.90;2048.00;;;;;;4998669;28;20080;-93
2021/01/14 01:05:11;;;;;;;55.60;26.57;;;12.90;2022.40;;;;;;4997752;28;20038;-88
2021/01/14 01:07:38;;;;;;;30.90;17.27;;;0.00;2048.00;;;;;;4998405;28;20045;-91
2021/01/14 01:10:07;;;;;;;35.93;20.20;;;0.10;2022.40;;;;;;4998300;28;20483;-88
2021/01/14 01:12:34;;;;;;;43.33;27.83;;;0.10;1996.80;;;;;;4998584;28;20041;-89
2021/01/14 01:15:00;;;;;;;75.13;37.80;;;0.00;2022.40;;;;;;4997978;28;20061;-90
2021/01/14 01:17:33;;;;;;;54.03;33.30;;;0.10;2022.40;;;;;;4998037;28;20061;-88
2021/01/14 01:19:59;;;;;;;33.65;20.02;;;0.00;2022.40;;;;;;4997889;28;20022;-88
2021/01/14 01:22:25;;;;;;;94.77;47.17;;;0.30;2022.40;;;;;;4998312;28;20116;-90
2021/01/14 01:24:51;;;;;;;144.57;76.13;;;12.90;1996.80;;;;;;4998445;28;20468;-89
2021/01/14 01:27:17;;;;;;;106.87;58.70;;;12.90;2022.40;;;;;;4998615;28;20026;-91
2021/01/14 01:29:42;;;;;;;38.77;22.97;;;12.90;1996.80;;;;;;4998403;28;20419;-90
2021/01/14 01:32:08;;;;;;;59.17;33.37;;;12.90;2022.40;;;;;;4998671;28;20026;-93
2021/01/14 01:34:34;;;;;;;80.13;45.23;;;13.00;1996.80;;;;;;4997978;28;20033;-89
2021/01/14 01:36:59;;;;;;;117.20;67.23;;;13.20;2022.40;;;;;;4997902;28;20073;-89
2021/01/14 01:39:25;;;;;;;134.67;73.13;;;13.50;2048.00;;;;;;4998340;28;20093;-88
2021/01/14 01:41:56;;;;;;;121.70;65.80;;;38.60;2073.60;;;;;;4997707;28;20471;-89
2021/01/14 01:44:23;;;;;;;110.90;59.70;;;38.80;2099.20;;;;;;4997548;28;20476;-88
2021/01/14 01:46:48;;;;;;;115.20;64.87;;;39.30;2150.40;;;;;;4997864;28;20034;-89
2021/01/14 01:49:14;;;;;;;122.17;65.47;;;64.20;2176.00;;;;;;4997494;28;20032;-88
2021/01/14 01:51:42;;;;;;;124.30;65.47;;;64.40;2201.60;;;;;;4997622;28;20116;-89
2021/01/14 01:54:10;;;;;;;122.57;63.57;;;64.40;2201.60;;;;;;4997579;28;20025;-91
2021/01/14 01:56:36;;;;;;;64.43;37.67;;;64.20;2201.60;;;;;;4997500;28;20034;-89
2021/01/14 01:59:03;;;;;;;127.50;65.00;;;39.30;2176.00;;;;;;4998481;28;20400;-90
2021/01/14 02:01:29;;;;;;;85.20;48.20;;;89.60;2201.60;;;;;;4998691;28;20037;-89
2021/01/14 02:03:55;;;;;;;88.87;50.27;;;89.60;2201.60;;;;;;4997229;28;20025;-90
2021/01/14 02:06:21;;;;;;;85.17;47.13;;;64.70;2201.60;;;;;;4996593;28;20049;-89
2021/01/14 02:08:49;;;;;;;99.90;53.50;;;64.50;2201.60;;;;;;4997372;28;20026;-88
2021/01/14 02:11:27;;;;;;;80.97;46.77;;;89.60;2201.60;;;;;;4997430;28;20518;-89
2021/01/14 02:14:11;;;;;;;113.87;59.37;;;64.80;2201.60;;;;;;4997217;28;20045;-89
2021/01/14 02:16:37;;;;;;;114.47;58.90;;;64.90;2201.60;;;;;;4997314;28;20060;-88
2021/01/14 02:19:12;;;;;;;111.03;56.13;;;64.90;2201.60;;;;;;4996793;28;20026;-88
2021/01/14 02:21:39;;;;;;;101.87;55.67;;;89.70;2176.00;;;;;;4997244;28;20040;-88
2021/01/14 02:24:08;;;;;;;111.23;58.13;;;64.80;2201.60;;;;;;4997075;28;20038;-88
2021/01/14 02:26:36;;;;;;;93.13;53.63;;;89.60;2201.60;;;;;;4997036;28;20045;-88
2021/01/14 02:29:02;;;;;;;101.37;50.53;;;89.70;2176.00;;;;;;4997310;28;20022;-88
2021/01/14 02:31:28;;;;;;;94.60;55.67;;;89.60;2201.60;;;;;;4997230;28;20029;-88
2021/01/14 02:33:56;;;;;;;80.80;46.37;;;90.10;2176.00;;;;;;4997008;28;20022;-88
2021/01/14 02:36:23;;;;;;;106.80;56.93;;;89.90;2176.00;;;;;;4996609;28;20092;-88
2021/01/14 02:38:49;;;;;;;100.83;51.63;;;89.90;2176.00;;;;;;4997023;28;20034;-88
2021/01/14 02:41:14;;;;;;;112.83;57.73;;;90.00;2176.00;;;;;;4997039;28;20026;-88
2021/01/14 02:43:41;;;;;;;114.73;53.60;;;90.10;2176.00;;;;;;4996943;28;20029;-89
2021/01/14 02:46:08;;;;;;;93.80;46.33;;;90.10;2176.00;;;;;;4996487;28;20046;-89
2021/01/14 02:48:49;;;;;;;67.87;36.73;;;89.80;2176.00;;;;;;4996800;28;20379;-88
2021/01/14 02:51:31;;;;;;;85.23;41.67;;;90.20;2176.00;;;;;;4997038;28;20026;-88
2021/01/14 02:53:58;;;;;;;75.22;43.30;;;90.30;2176.00;;;;;;4996557;28;20381;-89
2021/01/14 02:56:31;;;;;;;99.00;48.13;;;90.10;2176.00;;;;;;4997005;28;20026;-89
2021/01/14 02:58:57;;;;;;;81.32;40.85;;;90.00;2176.00;;;;;;4997060;28;20472;-89
2021/01/14 03:01:23;;;;;;;84.77;43.47;;;90.40;2176.00;;;;;;4997143;28;20033;-87
2021/01/14 03:03:48;;;;;;;83.17;41.37;;;115.20;2176.00;;;;;;4997331;28;20167;-89
2021/01/14 03:06:14;;;;;;;97.70;49.27;;;90.50;2176.00;;;;;;4998607;28;20042;-89
2021/01/14 03:08:40;;;;;;;80.57;41.60;;;90.30;2176.00;;;;;;5001007;28;20053;-89
2021/01/14 03:11:05;;;;;;;104.80;48.87;;;90.20;2176.00;;;;;;5017203;28;20030;-87
2021/01/14 03:13:32;;;;;;;88.63;44.67;;;90.00;2176.00;;;;;;4997179;28;20117;-88
2021/01/14 03:15:57;;;;;;;84.63;44.27;;;90.10;2176.00;;;;;;4996874;28;20471;-88
2021/01/14 03:18:23;;;;;;;97.17;49.30;;;90.40;2176.00;;;;;;4998799;28;20026;-88
2021/01/14 03:20:49;;;;;;;66.30;37.07;;;90.20;2176.00;;;;;;5000611;28;20487;-88
2021/01/14 03:23:15;;;;;;;78.63;42.43;;;90.00;2176.00;;;;;;5000466;28;20026;-88
2021/01/14 03:25:41;;;;;;;69.07;38.43;;;90.20;2176.00;;;;;;5000192;28;20038;-88
2021/01/14 03:28:06;;;;;;;89.93;46.40;;;90.40;2176.00;;;;;;5000149;28;20368;-88
2021/01/14 03:30:32;;;;;;;91.53;48.03;;;115.20;2176.00;;;;;;5000333;28;20041;-88
2021/01/14 03:32:58;;;;;;;85.90;46.90;;;115.30;2176.00;;;;;;5000202;28;20060;-87
2021/01/14 03:35:24;;;;;;;87.97;46.10;;;115.20;2176.00;;;;;;4999810;28;20085;-87
2021/01/14 03:37:50;;;;;;;75.50;43.63;;;90.50;2176.00;;;;;;5000116;28;20497;-89
2021/01/14 03:40:17;;;;;;;91.70;46.03;;;90.20;2176.00;;;;;;5000292;28;20034;-89
2021/01/14 03:42:43;;;;;;;85.97;40.70;;;90.10;2176.00;;;;;;5000329;28;20026;-89
2021/01/14 03:45:09;;;;;;;103.83;50.50;;;89.90;2176.00;;;;;;4999760;28;20092;-88
2021/01/14 03:47:36;;;;;;;91.93;50.47;;;89.80;2176.00;;;;;;4999701;28;20037;-89
2021/01/14 03:50:03;;;;;;;80.80;41.33;;;90.30;2176.00;;;;;;4999731;28;20033;-88
2021/01/14 03:52:29;;;;;;;84.93;43.37;;;90.40;2176.00;;;;;;4999568;28;20037;-88
2021/01/14 03:54:54;;;;;;;93.93;48.83;;;90.20;2176.00;;;;;;4999543;28;20037;-88
2021/01/14 03:57:20;;;;;;;155.57;71.23;;;89.80;2176.00;;;;;;5000127;28;20041;-89
2021/01/14 03:59:46;;;;;;;100.70;51.93;;;90.10;2176.00;;;;;;4998966;28;20491;-89
2021/01/14 04:02:12;;;;;;;96.27;46.57;;;89.80;2176.00;;;;;;4999645;28;20045;-89
2021/01/14 04:04:42;;;;;;;107.00;56.13;;;89.90;2176.00;;;;;;4999317;28;20034;-90
2021/01/14 04:07:09;;;;;;;126.00;65.10;;;89.90;2176.00;;;;;;4999259;28;20053;-89
2021/01/14 04:09:35;;;;;;;93.50;49.43;;;90.20;2176.00;;;;;;4999644;28;20109;-88
2021/01/14 04:12:01;;;;;;;100.27;56.47;;;90.00;2150.40;;;;;;4999644;28;20022;-89
2021/01/14 04:14:27;;;;;;;103.63;53.10;;;90.40;2176.00;;;;;;4999424;28;20026;-89
2021/01/14 04:16:53;;;;;;;103.97;56.87;;;90.20;2176.00;;;;;;4999502;28;20025;-89
2021/01/14 04:19:20;;;;;;;102.30;55.47;;;90.10;2176.00;;;;;;4998900;28;20025;-89
2021/01/14 04:21:46;;;;;;;116.03;57.63;;;89.80;2176.00;;;;;;4999231;28;20518;-89
2021/01/14 04:24:12;;;;;;;86.30;42.50;;;90.10;2150.40;;;;;;4999232;28;20046;-89
2021/01/14 04:26:38;;;;;;;77.53;39.97;;;89.90;2150.40;;;;;;4999285;28;20069;-90
2021/01/14 04:29:05;;;;;;;81.17;43.03;;;90.10;2150.40;;;;;;4998386;28;20460;-90
2021/01/14 04:31:31;;;;;;;95.70;47.53;;;90.20;2150.40;;;;;;4999196;28;20061;-89
2021/01/14 04:33:57;;;;;;;128.90;62.60;;;90.10;2176.00;;;;;;4999055;28;20027;-89
2021/01/14 04:36:23;;;;;;;143.00;70.10;;;89.90;2150.40;;;;;;4995450;28;20443;-92
2021/01/14 04:38:48;;;;;;;171.73;87.90;;;89.70;2150.40;;;;;;4995736;28;20034;-89
2021/01/14 04:41:18;;;;;;;91.73;50.40;;;90.20;2150.40;;;;;;4995387;28;20068;-89
2021/01/14 04:43:44;;;;;;;108.93;54.10;;;90.50;2176.00;;;;;;4995475;28;20033;-89
2021/01/14 04:46:11;;;;;;;99.27;50.37;;;90.20;2150.40;;;;;;4995459;28;20503;-90
2021/01/14 04:48:41;;;;;;;106.03;49.57;;;115.50;2176.00;;;;;;4995224;28;20050;-90
2021/01/14 04:51:11;;;;;;;87.50;48.97;;;115.30;2176.00;;;;;;4995391;28;20076;-90
2021/01/14 04:53:41;;;;;;;89.27;49.47;;;90.40;2176.00;;;;;;4994940;28;20134;-88
2021/01/14 04:56:08;;;;;;;80.20;41.83;;;90.40;2176.00;;;;;;4995252;28;20039;-89
2021/01/14 04:58:39;;;;;;;81.87;46.57;;;90.30;2176.00;;;;;;4995426;28;20030;-89
2021/01/14 05:01:19;;;;;;;82.43;47.13;;;90.40;2150.40;;;;;;4995274;28;20042;-88
2021/01/14 05:03:47;;;;;;;82.37;45.50;;;90.30;2176.00;;;;;;4994926;28;20026;-88
2021/01/14 05:06:17;;;;;;;83.40;45.63;;;90.40;2150.40;;;;;;4994743;28;20038;-88
2021/01/14 05:08:47;;;;;;;106.13;52.97;;;115.20;2176.00;;;;;;4995564;28;20022;-89
2021/01/14 05:11:15;;;;;;;128.83;70.93;;;90.30;2176.00;;;;;;4995417;28;20383;-89
2021/01/14 05:13:41;;;;;;;137.60;70.83;;;90.20;2176.00;;;;;;4995174;28;20037;-89
2021/01/14 05:16:07;;;;;;;207.70;98.40;;;115.20;2176.00;;;;;;4995156;28;20034;-88
2021/01/14 05:18:35;;;;;;;187.03;87.10;;;90.30;2176.00;;;;;;4994686;28;20400;-88
2021/01/14 05:21:01;;;;;;;148.87;75.93;;;90.30;2150.40;;;;;;4994723;28;20037;-88
2021/01/14 05:23:30;;;;;;;139.23;75.33;;;90.40;2176.00;;;;;;4995090;28;20045;-88
2021/01/14 05:25:57;;;;;;;155.20;77.03;;;90.30;2176.00;;;;;;4995476;28;20042;-88
2021/01/14 05:28:29;;;;;;;153.67;80.93;;;115.20;2176.00;;;;;;4997093;28;20586;-88
2021/01/14 05:31:16;;;;;;;186.13;96.87;;;115.20;2176.00;;;;;;4996368;28;20113;-88
2021/01/14 05:33:42;;;;;;;193.27;106.03;;;90.40;2176.00;;;;;;5002659;28;20026;-88
2021/01/14 05:36:08;;;;;;;257.63;142.97;;;90.50;2176.00;;;;;;4994206;28;20054;-88
2021/01/14 05:38:34;;;;;;;218.30;121.43;;;115.20;2176.00;;;;;;4994144;28;20041;-87
2021/01/14 05:43:59;;;;;;;247.63;136.73;;;90.50;2176.00;;;;;;4935928;29;20062;-87
2021/01/14 05:46:32;;;;;;;253.10;134.23;;;90.20;2176.00;;;;;;4935735;29;20099;-89
2021/01/14 05:49:02;;;;;;;302.07;169.87;;;90.20;2176.00;;;;;;4935432;29;20047;-86
2021/01/14 05:51:30;;;;;;;239.27;134.73;;;90.40;2176.00;;;;;;4935370;29;20032;-87
2021/01/14 05:54:06;;;;;;;239.73;130.23;;;90.10;2176.00;;;;;;4935781;29;20544;-89
2021/01/14 05:56:50;;;;;;;264.87;139.17;;;90.00;2176.00;;;;;;4920307;29;20031;-87
2021/01/14 05:59:18;;;;;;;230.00;123.20;;;90.20;2176.00;;;;;;4942874;29;20031;-86
2021/01/14 06:01:54;;;;;;;229.97;120.60;;;90.30;2176.00;;;;;;4945540;29;20596;-85
2021/01/14 06:04:22;;;;;;;227.23;121.77;;;90.00;2176.00;;;;;;4940773;29;20038;-87
2021/01/14 06:06:50;;;;;;;217.33;116.90;;;89.80;2176.00;;;;;;4935272;29;20095;-86
2021/01/14 06:09:18;;;;;;;223.70;118.47;;;89.60;2201.60;;;;;;4935211;29;20035;-86
2021/01/14 06:11:44;;;;;;;231.30;129.17;;;64.90;2176.00;;;;;;4935458;29;20047;-88
2021/01/14 06:14:25;;;;;;;226.40;133.67;;;64.70;2176.00;;;;;;4935478;29;20036;-86
2021/01/14 06:16:52;;;;;;;228.43;119.43;;;64.70;2201.60;;;;;;4935551;29;20046;-84
2021/01/14 06:19:17;;;;;;;212.70;114.70;;;64.70;2201.60;;;;;;4939605;28;20151;-85
2021/01/14 06:21:48;;;;;;;273.33;144.30;;;64.60;2176.00;;;;;;4995709;28;20034;-85
2021/01/14 06:24:56;;;;;;;282.07;148.97;;;89.70;2176.00;;;;;;4995496;28;20041;-85
2021/01/14 06:27:22;;;;;;;263.30;138.27;;;64.90;2201.60;;;;;;4900353;29;20107;-87
2021/01/14 06:29:47;;;;;;;253.67;133.03;;;64.90;2201.60;;;;;;4900665;29;20136;-87
2021/01/14 06:32:15;;;;;;;243.53;129.57;;;64.80;2201.60;;;;;;4900388;29;20111;-84
2021/01/14 06:34:46;;;;;;;321.60;166.23;;;64.60;2201.60;;;;;;4900678;29;20090;-87
2021/01/14 06:37:19;;;;;;;287.40;147.47;;;89.70;2176.00;;;;;;4936581;29;20051;-85
2021/01/14 06:39:52;;;;;;;213.87;113.27;;;89.60;2201.60;;;;;;4922111;29;20027;-86
2021/01/14 06:42:32;;;;;;;226.90;121.00;;;89.90;2176.00;;;;;;4920218;29;20102;-86
2021/01/14 06:45:03;;;;;;;219.40;115.50;;;90.30;2176.00;;;;;;4919784;29;20028;-86
2021/01/14 06:47:33;;;;;;;249.53;127.07;;;115.30;2176.00;;;;;;4920473;29;20040;-84
2021/01/14 06:50:20;;;;;;;216.13;115.27;;;90.30;2176.00;;;;;;4920319;29;20044;-85
2021/01/14 06:53:12;;;;;;;298.17;161.47;;;90.10;2176.00;;;;;;4920441;29;20059;-84
2021/01/14 06:55:39;;;;;;;275.93;150.27;;;90.00;2176.00;;;;;;4924274;29;20067;-83
2021/01/14 06:58:11;;;;;;;314.20;176.70;;;89.80;2176.00;;;;;;4925221;29;20035;-84
2021/01/14 07:00:38;;;;;;;262.05;146.70;;;64.90;2201.60;;;;;;4924499;29;20503;-84
2021/01/14 07:03:16;;;;;;;274.80;154.27;;;64.80;2201.60;;;;;;4968502;28;20081;-85
2021/01/14 07:05:55;;;;;;;250.07;141.40;;;64.50;2201.60;;;;;;4997132;28;20038;-89
2021/01/14 07:08:38;;;;;;;253.80;146.57;;;64.30;2201.60;;;;;;4996808;28;20085;-85
2021/01/14 07:11:14;;;;;;;253.90;142.17;;;64.30;2201.60;;;;;;4997221;28;20029;-84
2021/01/14 07:13:51;;;;;;;242.53;132.33;;;64.20;2201.60;;;;;;4997123;28;20082;-85
2021/01/14 07:16:20;;;;;;;214.03;120.60;;;64.00;2201.60;;;;;;4998093;28;20105;-86
2021/01/14 07:18:46;;;;;;;242.70;129.43;;;39.30;2176.00;;;;;;4996494;28;20026;-87
2021/01/14 07:21:30;;;;;;;245.47;135.90;;;39.30;2201.60;;;;;;4996816;28;20022;-86
2021/01/14 07:24:20;;;;;;;225.73;119.53;;;39.30;2201.60;;;;;;4997002;28;20076;-87
2021/01/14 07:27:00;;;;;;;227.60;126.30;;;39.10;2176.00;;;;;;4997149;28;20054;-85
2021/01/14 07:29:27;;;;;;;257.67;131.67;;;39.10;2124.80;;;;;;4996264;28;20034;-87
2021/01/14 07:31:54;;;;;;;261.40;149.93;;;39.00;2124.80;;;;;;4997205;28;20117;-87
2021/01/14 07:34:39;;;;;;;271.07;148.80;;;38.90;2124.80;;;;;;4997328;28;20053;-85
2021/01/14 07:37:09;;;;;;;300.13;167.23;;;39.00;2099.20;;;;;;4996637;28;20221;-87
2021/01/14 07:39:53;;;;;;;320.53;190.63;;;38.90;2099.20;;;;;;4996367;28;20053;-90
2021/01/14 07:42:33;;;;;;;284.93;161.97;;;38.90;2099.20;;;;;;4996980;28;20029;-87
2021/01/14 07:45:06;;;;;;;337.03;188.00;;;38.80;2124.80;;;;;;4996696;28;20492;-86
2021/01/14 07:47:38;;;;;;;369.87;211.57;;;38.80;2124.80;;;;;;4996639;28;20472;-87
2021/01/14 07:50:22;;;;;;;358.30;200.00;;;38.60;2099.20;;;;;;4997618;28;20057;-87
2021/01/14 07:52:53;;;;;;;342.00;189.93;;;38.60;2124.80;;;;;;4996283;28;20272;-86
2021/01/14 07:55:26;;;;;;;366.10;224.60;;;38.90;2124.80;;;;;;4996511;28;20068;-86
2021/01/14 07:58:13;;;;;;;421.53;255.30;;;38.70;2124.80;;;;;;4996382;28;20029;-85
2021/01/14 08:00:41;;;;;;;325.83;200.40;;;38.60;2124.80;;;;;;4903292;29;20043;-87
2021/01/14 08:03:11;;;;;;;333.13;192.43;;;38.60;2124.80;;;;;;4902939;29;20084;-86
2021/01/14 08:05:56;;;;;;;299.10;169.23;;;38.70;2150.40;;;;;;4902141;29;20068;-87
2021/01/14 08:08:34;;;;;;;308.53;170.43;;;38.70;2150.40;;;;;;4903985;29;20032;-86
2021/01/14 08:11:10;;;;;;;330.50;186.43;;;38.60;2150.40;;;;;;4902941;29;20024;-87
2021/01/14 08:14:13;;;;;;;299.30;176.57;;;38.60;2124.80;;;;;;4902944;29;20028;-88
2021/01/14 08:16:39;;;;;;;342.48;195.13;;;38.70;2124.80;;;;;;4902551;29;20068;-86
2021/01/14 08:19:16;;;;;;;311.23;185.83;;;38.90;2150.40;;;;;;4902234;29;20036;-85
2021/01/14 08:21:43;;;;;;;334.37;193.13;;;38.80;2124.80;;;;;;4902540;29;20032;-88
2021/01/14 08:24:10;;;;;;;304.97;174.60;;;38.60;2124.80;;;;;;4902417;29;20506;-85
2021/01/14 08:27:10;;;;;;;294.00;165.20;;;38.50;2124.80;;;;;;4902434;29;20494;-86
2021/01/14 08:29:50;;;;;;;282.17;155.57;;;38.50;2150.40;;;;;;4902620;29;20088;-86
2021/01/14 08:32:34;;;;;;;255.33;139.00;;;38.40;2150.40;;;;;;4902442;29;20074;-89
2021/01/14 08:35:04;;;;;;;225.03;131.07;;;13.60;2176.00;;;;;;4904936;29;20047;-87
2021/01/14 08:37:56;;;;;;;252.87;152.47;;;13.50;2124.80;;;;;;4941677;28;20050;-88
2021/01/14 08:40:22;;;;;;;274.60;159.10;;;13.70;2124.80;;;;;;4921111;29;20035;-88
2021/01/14 08:42:59;;;;;;;274.03;161.33;;;13.70;2150.40;;;;;;4921285;29;20531;-87
2021/01/14 08:45:28;;;;;;;291.60;174.47;;;38.50;2150.40;;;;;;4920761;29;20042;-88
2021/01/14 08:48:05;;;;;;;288.03;166.23;;;13.70;2150.40;;;;;;4920912;29;20052;-88
2021/01/14 08:50:43;;;;;;;305.47;185.63;;;13.60;2176.00;;;;;;4921024;28;20523;-91
2021/01/14 08:53:18;;;;;;;307.33;196.43;;;0.50;2201.60;;;;;;4920828;29;20036;-85
2021/01/14 08:56:10;;;;;;;303.20;184.13;;;0.80;2201.60;;;;;;4920733;29;20053;-86
2021/01/14 08:58:42;;;;;;;326.67;184.73;;;25.70;2048.00;;;;;;4932807;29;20036;-90
2021/01/14 09:01:22;;;;;;;272.17;164.30;;;0.20;2048.00;;;;;;4920811;29;20446;-90
2021/01/14 09:03:49;;;;;;;244.83;144.23;;;13.00;2022.40;;;;;;4920506;29;20578;-90
2021/01/14 09:06:17;;;;;;;270.13;154.63;;;13.30;2073.60;;;;;;4922164;29;20056;-88
2021/01/14 09:08:51;;;;;;;260.67;147.73;;;13.20;2099.20;;;;;;4922173;29;20027;-90
2021/01/14 09:11:26;;;;;;;255.57;146.57;;;13.20;2099.20;;;;;;4921739;29;20032;-87
2021/01/14 09:14:05;;;;;;;274.73;158.17;;;13.10;2124.80;;;;;;4923555;29;20035;-90
2021/01/14 09:16:31;;;;;;;248.93;144.27;;;13.00;2099.20;;;;;;4931891;28;20133;-89
2021/01/14 09:19:09;;;;;;;211.57;124.10;;;0.10;2073.60;;;;;;4980984;28;20026;-89
2021/01/14 09:21:35;;;;;;;199.67;125.77;;;12.90;2022.40;;;;;;4979673;28;20030;-89
2021/01/14 09:24:21;;;;;;;223.43;131.73;;;0.00;2022.40;;;;;;4976652;28;20038;-94
2021/01/14 09:26:51;;;;;;;212.17;129.57;;;12.90;2022.40;;;;;;4978041;28;20046;-90
2021/01/14 09:29:19;;;;;;;426.83;258.90;;;0.20;2022.40;;;;;;4978773;28;20023;-93
2021/01/14 09:31:45;;;;;;;459.60;269.73;;;0.10;2022.40;;;;;;4978925;28;20026;-92
2021/01/14 09:34:11;;;;;;;352.73;207.30;;;0.10;2073.60;;;;;;4977910;28;20110;-89
2021/01/14 09:36:37;;;;;;;359.43;211.73;;;0.10;2073.60;;;;;;4981263;28;20508;-92
2021/01/14 09:39:06;;;;;;;289.50;163.93;;;0.20;2073.60;;;;;;4977708;28;20023;-90
2021/01/14 09:41:32;;;;;;;115.70;72.70;;;0.20;2124.80;;;;;;4976230;28;20023;-89
2021/01/14 09:44:09;;;;;;;45.10;26.80;;;0.30;2201.60;;;;;;4975929;28;20037;-90
2021/01/14 09:46:43;;;;;;;38.00;24.27;;;0.30;2201.60;;;;;;4977262;28;20042;-91
2021/01/14 09:49:14;;;;;;;31.63;19.70;;;0.30;2201.60;;;;;;4975868;28;20027;-89
2021/01/14 09:51:41;;;;;;;30.80;20.00;;;0.40;2201.60;;;;;;4975449;28;20130;-91
2021/01/14 09:54:09;;;;;;;64.90;38.97;;;0.40;2201.60;;;;;;4975162;28;20029;-92
2021/01/14 09:56:37;;;;;;;60.97;39.23;;;0.40;2201.60;;;;;;4975399;28;20084;-86
2021/01/14 09:59:25;;;;;;;84.23;51.07;;;0.40;2201.60;;;;;;4975256;28;20031;-87
2021/01/14 10:02:19;;;;;;;76.53;49.77;;;0.40;2201.60;;;;;;4975124;28;20174;-90
2021/01/14 10:05:07;;;;;;;68.90;42.13;;;0.30;2201.60;;;;;;4972221;28;20047;-88
2021/01/14 10:07:36;;;;;;;50.23;30.20;;;0.20;2201.60;;;;;;4974257;28;20035;-89
2021/01/14 10:10:02;;;;;;;59.60;34.13;;;0.30;2201.60;;;;;;4974354;28;20019;-86
2021/01/14 10:12:32;;;;;;;47.57;28.53;;;0.30;2201.60;;;;;;4973912;28;20054;-90
2021/01/14 10:15:13;;;;;;;60.03;36.93;;;0.40;2201.60;;;;;;4974681;28;20031;-89
2021/01/14 10:17:40;;;;;;;83.90;54.97;;;0.40;2201.60;;;;;;4974939;28;20030;-90
2021/01/14 10:20:14;;;;;;;77.97;48.87;;;0.50;2201.60;;;;;;4974640;28;20030;-93
2021/01/14 10:22:51;;;;;;;71.83;47.07;;;0.60;2201.60;;;;;;4975207;28;20023;-90
2021/01/14 10:25:18;;;;;;;125.27;79.60;;;0.50;2201.60;;;;;;4974648;28;20023;-88
2021/01/14 10:28:07;;;;;;;129.23;81.10;;;0.20;2201.60;;;;;;4975666;28;20041;-89
2021/01/14 10:30:38;;;;;;;142.43;88.93;;;0.20;2201.60;;;;;;4978678;28;20027;-90
2021/01/14 10:33:05;;;;;;;120.00;84.03;;;0.20;2201.60;;;;;;4979455;28;20031;-88
2021/01/14 10:35:33;;;;;;;105.63;67.20;;;0.50;2201.60;;;;;;4978119;28;20162;-89
2021/01/14 10:38:10;;;;;;;121.37;77.17;;;0.50;2201.60;;;;;;4979380;28;20031;-89
2021/01/14 10:40:51;;;;;;;132.20;82.67;;;0.60;2201.60;;;;;;4981239;28;20033;-88
2021/01/14 10:43:38;;;;;;;168.40;100.27;;;0.80;2201.60;;;;;;4978865;28;20023;-87
2021/01/14 10:46:04;;;;;;;110.47;69.80;;;0.90;2201.60;;;;;;4978580;28;20034;-85
2021/01/14 10:48:41;;;;;;;120.23;75.87;;;25.60;2201.60;;;;;;4979480;28;20027;-90
2021/01/14 10:51:07;;;;;;;245.07;139.60;;;25.60;2201.60;;;;;;4978613;28;20086;-90
2021/01/14 10:53:34;;;;;;;267.53;164.20;;;25.60;2201.60;;;;;;4981686;28;20023;-90
2021/01/14 10:56:09;;;;;;;166.03;104.23;;;0.90;2201.60;;;;;;4980353;28;20038;-88
2021/01/14 10:58:42;;;;;;;135.73;86.97;;;0.90;2201.60;;;;;;4983637;28;20027;-89
2021/01/14 11:01:30;;;;;;;127.10;78.80;;;25.70;2201.60;;;;;;4994004;28;20057;-88
2021/01/14 11:04:22;;;;;;;105.90;63.03;;;25.90;2201.60;;;;;;5007334;28;20041;-93
2021/01/14 11:06:48;;;;;;;99.27;63.83;;;26.10;2201.60;;;;;;5025790;28;20065;-93
2021/01/14 11:09:14;;;;;;;110.90;67.13;;;26.20;2201.60;;;;;;5020168;28;20018;-93
2021/01/14 11:11:40;;;;;;;109.80;70.07;;;26.30;2201.60;;;;;;5013852;28;20038;-95
2021/01/14 11:14:30;;;;;;;132.67;78.07;;;26.40;2201.60;;;;;;5001971;28;20089;-95
2021/01/14 11:17:24;;;;;;;130.73;76.90;;;26.40;2201.60;;;;;;5000959;28;20495;-92
2021/01/14 11:19:51;;;;;;;113.77;67.63;;;26.50;2201.60;;;;;;4998503;28;20042;-93
2021/01/14 11:22:17;;;;;;;82.20;53.00;;;26.50;2201.60;;;;;;5014077;28;20030;-92
2021/01/14 11:24:45;;;;;;;49.50;31.57;;;26.40;2201.60;;;;;;5012468;28;20057;-91
2021/01/14 11:27:17;;;;;;;104.43;62.63;;;26.30;2201.60;;;;;;5004245;28;20049;-95
2021/01/14 11:29:51;;;;;;;68.85;40.80;;;26.30;2201.60;;;;;;4986272;28;20034;-94
2021/01/14 11:32:20;;;;;;;82.17;48.80;;;26.30;2201.60;;;;;;5002489;28;20054;-91
2021/01/14 11:34:45;;;;;;;64.23;41.80;;;26.40;2201.60;;;;;;5002337;28;20113;-93
2021/01/14 11:37:11;;;;;;;68.43;44.43;;;26.50;2201.60;;;;;;5003380;28;20561;-94
2021/01/14 11:40:00;;;;;;;74.17;45.37;;;26.50;2201.60;;;;;;5005619;28;20060;-96
2021/01/14 11:42:30;;;;;;;82.67;49.20;;;26.50;2201.60;;;;;;5004306;28;20080;-91
2021/01/14 11:45:03;;;;;;;70.53;47.23;;;26.50;2201.60;;;;;;5004579;28;20026;-94
2021/01/14 11:47:29;;;;;;;70.63;47.03;;;51.30;2227.20;;;;;;5002905;28;20041;-93
2021/01/14 11:49:54;;;;;;;58.90;40.47;;;51.30;2227.20;;;;;;5005999;28;20034;-91
2021/01/14 11:52:22;;;;;;;88.23;57.57;;;51.40;2227.20;;;;;;5011585;28;20018;-94
2021/01/14 11:54:53;;;;;;;80.30;49.10;;;51.40;2227.20;;;;;;5011963;28;20087;-93
2021/01/14 12:00:43;;;;;;;84.13;48.70;;;51.50;2227.20;;;;;;5021083;28;20040;-93
2021/01/14 12:03:09;;;;;;;68.80;40.80;;;51.70;2227.20;;;;;;5019927;28;20030;-91
2021/01/14 12:05:41;;;;;;;67.80;39.73;;;51.70;2227.20;;;;;;5001478;28;20057;-91
2021/01/14 12:08:07;;;;;;;48.67;30.40;;;51.80;2227.20;;;;;;5001446;28;20018;-91
2021/01/14 12:10:34;;;;;;;67.60;40.77;;;51.80;2176.00;;;;;;5001308;28;20036;-92
2021/01/14 12:13:00;;;;;;;71.20;44.47;;;51.80;2227.20;;;;;;4984443;28;20099;-90
2021/01/14 12:15:26;;;;;;;97.47;59.53;;;51.80;2227.20;;;;;;5000720;28;20069;-89
2021/01/14 12:17:57;;;;;;;76.77;48.77;;;52.00;2227.20;;;;;;4991724;28;20121;-86
2021/01/14 12:20:23;;;;;;;57.80;37.80;;;51.90;2201.60;;;;;;5006505;28;20034;-88
2021/01/14 12:22:49;;;;;;;116.10;64.23;;;51.90;2201.60;;;;;;5000261;28;20080;-87
2021/01/14 12:25:14;;;;;;;123.10;75.30;;;52.00;2227.20;;;;;;5000073;28;20561;-90
2021/01/14 12:27:41;;;;;;;124.23;77.10;;;52.00;2227.20;;;;;;5001464;28;20041;-91